createdAt,value
2022-12-06T00:00:30.864Z,34.70
2022-12-06T00:02:59.391Z,34.50
2022-12-06T00:05:40.665Z,34.40
2022-12-06T00:08:11.386Z,34.20
2022-12-06T00:10:48.946Z,34.00
2022-12-06T00:13:33.130Z,33.90
2022-12-06T00:16:07.330Z,33.80
2022-12-06T00:18:39.472Z,34.40
2022-12-06T00:21:12.271Z,34.70
2022-12-06T00:24:08.702Z,35.00
2022-12-06T00:26:45.845Z,35.10
2022-12-06T00:29:16.957Z,34.80
2022-12-06T00:31:52.289Z,34.60
2022-12-06T00:34:24.390Z,34.40
2022-12-06T00:36:54.260Z,34.20
2022-12-06T00:39:22.455Z,34.00
2022-12-06T00:41:50.883Z,33.80
2022-12-06T00:44:21.652Z,33.70
2022-12-06T00:46:52.445Z,33.80
2022-12-06T00:49:23.461Z,34.20
2022-12-06T00:51:56.419Z,34.60
2022-12-06T00:54:24.950Z,34.90
2022-12-06T00:56:57.450Z,35.10
2022-12-06T00:59:31.847Z,34.60
2022-12-06T01:02:03.316Z,34.60
2022-12-06T01:04:31.542Z,34.40
2022-12-06T01:07:01.500Z,34.20
2022-12-06T01:09:46.885Z,34.00
2022-12-06T01:12:17.276Z,33.90
2022-12-06T01:14:47.194Z,33.70
2022-12-06T01:17:17.813Z,33.70
2022-12-06T01:19:53.381Z,34.20
2022-12-06T01:22:27.014Z,34.50
2022-12-06T01:25:00.690Z,34.90
2022-12-06T01:27:32.926Z,35.00
2022-12-06T01:30:01.263Z,34.70
2022-12-06T01:32:34.134Z,34.50
2022-12-06T01:35:07.604Z,34.40
2022-12-06T01:37:40.069Z,34.20
2022-12-06T01:40:14.564Z,34.00
2022-12-06T01:45:24.246Z,33.80
2022-12-06T01:47:52.702Z,33.70
2022-12-06T01:50:27.711Z,34.20
2022-12-06T01:53:20.230Z,34.50
2022-12-06T01:55:56.817Z,34.80
2022-12-06T01:58:28.486Z,35.00
2022-12-06T02:01:00.971Z,35.30
2022-12-06T02:03:33.146Z,35.30
2022-12-06T02:06:01.622Z,35.00
2022-12-06T02:08:35.820Z,34.70
2022-12-06T02:11:04.172Z,34.60
2022-12-06T02:13:32.530Z,34.40
2022-12-06T02:16:05.893Z,34.20
2022-12-06T02:18:36.339Z,34.10
2022-12-06T02:21:11.008Z,33.90
2022-12-06T02:24:15.968Z,33.80
2022-12-06T02:26:44.790Z,34.30
2022-12-06T02:29:30.277Z,34.80
2022-12-06T02:32:00.505Z,34.90
2022-12-06T02:34:31.839Z,35.10
2022-12-06T02:37:02.144Z,34.70
2022-12-06T02:39:32.147Z,34.60
2022-12-06T02:42:01.597Z,34.40
2022-12-06T02:44:32.965Z,34.20
2022-12-06T02:47:02.702Z,34.10
2022-12-06T02:49:32.805Z,33.90
2022-12-06T02:52:01.017Z,33.80
2022-12-06T02:54:29.238Z,33.70
2022-12-06T02:56:57.486Z,34.20
2022-12-06T02:59:25.718Z,34.50
2022-12-06T03:01:55.552Z,34.70
2022-12-06T03:04:46.399Z,35.00
2022-12-06T03:07:33.633Z,34.90
2022-12-06T03:10:22.221Z,34.60
2022-12-06T03:12:54.613Z,34.40
2022-12-06T03:15:34.352Z,34.10
2022-12-06T03:18:04.377Z,34.00
2022-12-06T03:20:43.137Z,33.90
2022-12-06T03:23:21.643Z,33.70
2022-12-06T03:26:15.544Z,33.80
2022-12-06T03:28:43.877Z,34.20
2022-12-06T03:31:12.896Z,34.60
2022-12-06T03:33:42.618Z,34.90
2022-12-06T03:36:15.212Z,35.00
2022-12-06T03:38:46.712Z,34.60
2022-12-06T03:41:15.000Z,34.50
2022-12-06T03:43:43.257Z,34.30
2022-12-06T03:46:13.831Z,34.10
2022-12-06T03:48:43.086Z,34.00
2022-12-06T03:51:12.140Z,33.90
2022-12-06T03:53:47.487Z,33.70
2022-12-06T03:56:15.823Z,33.70
2022-12-06T03:58:44.068Z,34.20
2022-12-06T04:01:12.282Z,34.50
2022-12-06T04:03:40.530Z,34.80
2022-12-06T04:06:11.554Z,35.00
2022-12-06T04:08:39.881Z,35.20
2022-12-06T04:11:09.445Z,35.30
2022-12-06T04:13:37.618Z,35.00
2022-12-06T04:16:27.181Z,34.70
2022-12-06T04:18:54.475Z,34.50
2022-12-06T04:21:40.315Z,34.40
2022-12-06T04:24:08.562Z,34.10
2022-12-06T04:26:38.154Z,34.00
2022-12-06T04:29:23.670Z,33.90
2022-12-06T04:32:08.943Z,33.70
2022-12-06T04:34:54.396Z,34.40
2022-12-06T04:37:39.758Z,34.60
2022-12-06T04:40:09.335Z,35.00
2022-12-06T04:43:03.438Z,35.20
2022-12-06T04:45:31.575Z,34.80
2022-12-06T04:47:59.752Z,34.60
2022-12-06T04:50:28.035Z,34.40
2022-12-06T04:52:58.297Z,34.10
2022-12-06T04:55:26.571Z,34.00
2022-12-06T04:58:15.980Z,33.80
2022-12-06T05:01:08.697Z,33.80
2022-12-06T05:03:43.908Z,33.90
2022-12-06T05:06:21.469Z,34.40
2022-12-06T05:08:50.615Z,34.70
2022-12-06T05:11:18.878Z,34.90
2022-12-06T05:13:54.302Z,35.00
2022-12-06T05:16:22.618Z,34.70
2022-12-06T05:18:50.873Z,34.40
2022-12-06T05:21:21.579Z,34.30
2022-12-06T05:23:54.067Z,34.10
2022-12-06T05:26:23.372Z,34.00
2022-12-06T05:28:51.605Z,33.80
2022-12-06T05:31:21.301Z,33.60
2022-12-06T05:33:50.100Z,33.70
2022-12-06T05:36:20.346Z,34.20
2022-12-06T05:38:51.552Z,34.50
2022-12-06T05:41:20.291Z,34.60
2022-12-06T05:43:48.528Z,34.90
2022-12-06T05:46:17.576Z,34.70
2022-12-06T05:48:48.008Z,34.50
2022-12-06T05:51:18.706Z,34.40
2022-12-06T05:54:10.458Z,34.10
2022-12-06T05:56:41.373Z,34.00
2022-12-06T05:59:13.565Z,33.80
2022-12-06T06:01:47.722Z,33.60
2022-12-06T06:04:18.325Z,33.60
2022-12-06T06:06:59.533Z,34.10
2022-12-06T06:09:28.266Z,34.50
2022-12-06T06:11:56.838Z,34.80
2022-12-06T06:14:28.608Z,35.00
2022-12-06T06:16:59.456Z,35.20
2022-12-06T06:19:34.570Z,35.30
2022-12-06T06:22:02.799Z,35.00
2022-12-06T06:24:38.227Z,34.70
2022-12-06T06:27:12.699Z,34.60
2022-12-06T06:29:45.280Z,34.30
2022-12-06T06:32:13.963Z,34.10
2022-12-06T06:34:43.627Z,34.00
2022-12-06T06:37:16.599Z,33.90
2022-12-06T06:39:45.155Z,33.70
2022-12-06T06:42:13.465Z,34.30
2022-12-06T06:44:42.683Z,34.60
2022-12-06T06:47:16.536Z,34.80
2022-12-06T06:49:49.156Z,35.00
2022-12-06T06:52:18.246Z,34.90
2022-12-06T06:54:52.886Z,34.60
2022-12-06T06:57:23.657Z,34.50
2022-12-06T06:59:51.904Z,34.30
2022-12-06T07:02:20.316Z,34.00
2022-12-06T07:04:50.433Z,33.90
2022-12-06T07:07:21.211Z,33.90
2022-12-06T07:09:53.139Z,33.60
2022-12-06T07:12:21.741Z,34.00
2022-12-06T07:14:51.606Z,34.40
2022-12-06T07:17:24.731Z,34.70
2022-12-06T07:19:54.568Z,34.90
2022-12-06T07:22:22.895Z,34.90
2022-12-06T07:24:53.831Z,34.60
2022-12-06T07:27:25.032Z,34.40
2022-12-06T07:29:56.204Z,34.20
2022-12-06T07:32:27.680Z,34.00
2022-12-06T07:34:57.373Z,33.90
2022-12-06T07:37:25.719Z,33.80
2022-12-06T07:39:59.378Z,33.60
2022-12-06T07:42:45.381Z,33.90
2022-12-06T07:45:15.676Z,34.20
2022-12-06T07:47:44.761Z,34.70
2022-12-06T07:50:18.697Z,34.90
2022-12-06T07:52:47.249Z,35.10
2022-12-06T07:55:15.673Z,34.60
2022-12-06T07:57:46.992Z,34.40
2022-12-06T08:00:16.148Z,34.20
2022-12-06T08:02:48.931Z,34.10
2022-12-06T08:05:21.247Z,33.90
2022-12-06T08:07:53.929Z,33.80
2022-12-06T08:10:24.839Z,33.60
2022-12-06T08:12:55.824Z,33.80
2022-12-06T08:15:26.015Z,34.30
2022-12-06T08:17:54.352Z,34.60
2022-12-06T08:20:24.253Z,34.80
2022-12-06T08:22:52.785Z,35.00
2022-12-06T08:25:24.305Z,35.30
2022-12-06T08:27:53.024Z,35.30
2022-12-06T08:30:21.783Z,34.90
2022-12-06T08:32:57.157Z,34.70
2022-12-06T08:35:29.567Z,34.40
2022-12-06T08:38:00.882Z,34.30
2022-12-06T08:40:29.295Z,34.10
2022-12-06T08:42:57.736Z,33.90
2022-12-06T08:45:25.919Z,33.90
2022-12-06T08:47:54.335Z,33.70
2022-12-06T08:50:24.701Z,34.20
2022-12-06T08:53:00.850Z,34.60
2022-12-06T08:55:31.840Z,34.90
2022-12-06T08:58:05.097Z,35.10
2022-12-06T09:00:35.361Z,34.80
2022-12-06T09:03:06.257Z,34.60
2022-12-06T09:05:40.748Z,34.40
2022-12-06T09:08:10.392Z,34.20
2022-12-06T09:10:45.383Z,34.10
2022-12-06T09:13:16.234Z,34.00
2022-12-06T09:15:44.368Z,33.80
2022-12-06T09:18:14.721Z,33.70
2022-12-06T09:20:43.022Z,34.30
2022-12-06T09:23:12.723Z,34.50
2022-12-06T09:25:44.872Z,34.80
2022-12-06T09:28:13.041Z,35.10
2022-12-06T09:30:41.249Z,34.90
2022-12-06T09:33:09.591Z,34.60
2022-12-06T09:35:37.656Z,34.40
2022-12-06T09:38:08.242Z,34.20
2022-12-06T09:40:56.181Z,34.10
2022-12-06T09:43:36.465Z,33.90
2022-12-06T09:46:18.831Z,33.80
2022-12-06T09:48:57.623Z,33.70
2022-12-06T09:51:32.823Z,34.10
2022-12-06T09:54:12.420Z,34.40
2022-12-06T09:56:44.839Z,34.80
2022-12-06T09:59:17.944Z,35.00
2022-12-06T10:01:56.118Z,34.90
2022-12-06T10:04:35.978Z,34.60
2022-12-06T10:07:10.070Z,34.40
2022-12-06T10:09:42.895Z,34.20
2022-12-06T10:12:17.671Z,34.00
2022-12-06T10:14:57.669Z,33.80
2022-12-06T10:17:31.606Z,33.80
2022-12-06T10:20:05.434Z,33.70
2022-12-06T10:22:40.398Z,34.00
2022-12-06T10:25:12.487Z,34.50
2022-12-06T10:27:48.447Z,34.80
2022-12-06T10:30:20.786Z,35.00
2022-12-06T10:32:57.621Z,35.20
2022-12-06T10:35:35.385Z,35.30
2022-12-06T10:38:10.619Z,35.00
2022-12-06T10:40:44.642Z,34.80
2022-12-06T10:43:18.460Z,34.50
2022-12-06T10:46:15.582Z,34.30
2022-12-06T10:48:49.903Z,34.10
2022-12-06T10:51:23.078Z,34.00
2022-12-06T10:53:54.163Z,33.90
2022-12-06T10:56:24.240Z,33.90
2022-12-06T10:58:55.258Z,34.40
2022-12-06T11:01:26.876Z,34.60
2022-12-06T11:04:02.649Z,34.90
2022-12-06T11:06:33.348Z,35.10
2022-12-06T11:09:05.707Z,34.80
2022-12-06T11:11:37.019Z,34.50
2022-12-06T11:14:12.493Z,34.40
2022-12-06T11:16:42.243Z,34.10
2022-12-06T11:19:20.547Z,34.00
2022-12-06T11:21:54.859Z,33.90
2022-12-06T11:24:24.209Z,33.80
2022-12-06T11:26:58.830Z,33.70
2022-12-06T11:29:33.293Z,34.30
2022-12-06T11:32:04.515Z,34.60
2022-12-06T11:34:34.318Z,34.90
2022-12-06T11:37:06.202Z,35.10
2022-12-06T11:39:36.921Z,34.70
2022-12-06T11:42:05.630Z,34.50
2022-12-06T11:44:49.713Z,34.30
2022-12-06T11:47:21.614Z,34.10
2022-12-06T11:49:52.781Z,34.00
2022-12-06T11:52:25.834Z,33.90
2022-12-06T11:54:57.888Z,33.80
2022-12-06T11:57:30.235Z,33.70
2022-12-06T12:00:24.277Z,34.20
2022-12-06T12:02:56.096Z,34.50
2022-12-06T12:05:27.333Z,34.90
2022-12-06T12:08:00.160Z,35.00
2022-12-06T12:10:35.023Z,34.70
2022-12-06T12:13:36.184Z,34.50
2022-12-06T12:16:16.229Z,34.30
2022-12-06T12:18:52.857Z,34.10
2022-12-06T12:21:42.239Z,34.00
2022-12-06T12:27:49.629Z,33.70
2022-12-06T12:30:22.969Z,34.00
2022-12-06T12:33:09.774Z,34.40
2022-12-06T12:35:38.662Z,34.80
2022-12-06T12:38:16.181Z,35.00
2022-12-06T12:40:48.626Z,35.20
2022-12-06T12:43:20.733Z,35.30
2022-12-06T12:46:17.556Z,35.00
2022-12-06T12:48:51.181Z,34.80
2022-12-06T12:51:26.269Z,34.50
2022-12-06T12:53:58.776Z,34.30
2022-12-06T12:56:29.881Z,34.10
2022-12-06T12:58:58.666Z,34.00
2022-12-06T13:01:53.539Z,33.90
2022-12-06T13:04:43.133Z,33.80
2022-12-06T13:07:22.870Z,34.40
2022-12-06T13:09:57.665Z,34.80
2022-12-06T13:12:36.229Z,35.00
2022-12-06T13:15:06.717Z,35.10
2022-12-06T13:17:38.913Z,34.80
2022-12-06T13:20:21.109Z,34.50
2022-12-06T13:22:53.012Z,34.30
2022-12-06T13:25:24.014Z,34.10
2022-12-06T13:27:54.071Z,34.00
2022-12-06T13:30:23.301Z,33.90
2022-12-06T13:32:52.814Z,33.80
2022-12-06T13:35:31.221Z,33.80
2022-12-06T13:38:26.340Z,34.40
2022-12-06T13:40:58.388Z,34.60
2022-12-06T13:43:50.746Z,35.00
2022-12-06T13:46:28.464Z,35.10
2022-12-06T13:48:57.234Z,34.70
2022-12-06T13:51:52.479Z,34.40
2022-12-06T13:54:30.819Z,34.30
2022-12-06T13:57:01.717Z,34.10
2022-12-06T13:59:37.872Z,33.90
2022-12-06T14:02:50.854Z,33.80
2022-12-06T14:08:28.957Z,34.20
2022-12-06T14:14:08.921Z,34.80
2022-12-06T14:16:37.932Z,35.00
2022-12-06T14:19:16.123Z,34.70
2022-12-06T14:21:45.927Z,34.40
2022-12-06T14:24:32.557Z,34.20
2022-12-06T14:27:08.032Z,34.20
2022-12-06T14:29:36.629Z,34.00
2022-12-06T14:32:05.336Z,33.80
2022-12-06T14:34:34.756Z,33.70
2022-12-06T14:37:13.493Z,33.80
2022-12-06T14:39:43.137Z,34.30
2022-12-06T14:42:36.051Z,34.50
2022-12-06T14:45:04.769Z,34.80
2022-12-06T14:47:33.131Z,35.10
2022-12-06T14:50:18.970Z,35.20
2022-12-06T14:52:57.175Z,35.30
2022-12-06T14:55:27.476Z,34.80
2022-12-06T14:57:57.362Z,34.70
2022-12-06T15:00:28.130Z,34.40
2022-12-06T15:03:01.078Z,34.30
2022-12-06T15:05:36.182Z,34.10
2022-12-06T15:08:33.532Z,34.00
2022-12-06T15:11:03.993Z,33.80
2022-12-06T15:13:31.207Z,34.20
2022-12-06T15:16:13.101Z,34.50
2022-12-06T15:18:42.413Z,34.80
2022-12-06T15:21:14.259Z,35.00
2022-12-06T15:23:48.660Z,35.10
2022-12-06T15:26:21.085Z,34.70
2022-12-06T15:28:49.329Z,34.50
2022-12-06T15:31:18.994Z,34.30
2022-12-06T15:33:47.326Z,34.10
2022-12-06T15:36:18.224Z,33.90
2022-12-06T15:38:46.480Z,33.90
2022-12-06T15:41:16.221Z,33.80
2022-12-06T15:43:45.686Z,33.90
2022-12-06T15:46:18.073Z,34.30
2022-12-06T15:48:46.391Z,34.80
2022-12-06T15:51:20.339Z,34.90
2022-12-06T15:53:49.662Z,35.00
2022-12-06T15:56:18.905Z,34.80
2022-12-06T15:58:49.827Z,35.10
2022-12-06T16:01:19.213Z,34.40
2022-12-06T16:03:47.541Z,34.20
2022-12-06T16:06:33.674Z,33.90
2022-12-06T16:09:24.636Z,34.00
2022-12-06T16:19:13.909Z,34.40
2022-12-06T16:22:30.017Z,34.90
2022-12-06T17:16:44.952Z,34.10
2022-12-06T18:30:29.532Z,34.60
2022-12-06T18:33:39.288Z,35.00
2022-12-06T18:36:56.956Z,34.70
2022-12-06T18:40:23.195Z,34.40
2022-12-06T18:56:32.592Z,34.20
2022-12-06T19:06:03.494Z,35.10
2022-12-06T19:24:56.130Z,34.10
2022-12-06T19:27:25.480Z,33.90
2022-12-06T19:29:54.073Z,34.30
2022-12-06T19:32:24.560Z,34.70
2022-12-06T19:34:56.908Z,34.80
2022-12-06T19:37:34.346Z,35.00
2022-12-06T19:40:04.851Z,35.00
2022-12-06T19:42:50.354Z,34.70
2022-12-06T19:45:19.139Z,34.50
2022-12-06T19:47:50.474Z,34.40
2022-12-06T19:50:18.596Z,34.80
2022-12-06T19:52:47.598Z,34.10
2022-12-06T19:55:17.358Z,34.00
2022-12-06T19:57:46.292Z,33.80
2022-12-06T20:00:21.089Z,34.00
2022-12-06T20:02:51.038Z,34.50
2022-12-06T20:05:20.611Z,34.70
2022-12-06T20:07:49.112Z,35.00
2022-12-06T20:10:19.986Z,35.10
